sensor_id;sensor_type;location;lat;lon;timestamp;temperature;humidity
3275;DHT22;1649;53.672;10.064;2023-08-30T00:00:07;13.90;99.90
3275;DHT22;1649;53.672;10.064;2023-08-30T00:02:33;13.90;99.90
3275;DHT22;1649;53.672;10.064;2023-08-30T00:04:59;13.90;99.90
3275;DHT22;1649;53.672;10.064;2023-08-30T00:07:26;13.90;99.90
3275;DHT22;1649;53.672;10.064;2023-08-30T00:09:52;13.90;99.90
3275;DHT22;1649;53.672;10.064;2023-08-30T00:12:17;13.80;99.90
3275;DHT22;1649;53.672;10.064;2023-08-30T00:14:43;13.80;99.90
3275;DHT22;1649;53.672;10.064;2023-08-30T00:17:08;13.80;99.90
3275;DHT22;1649;53.672;10.064;2023-08-30T00:19:34;13.80;99.90
3275;DHT22;1649;53.672;10.064;2023-08-30T00:22:00;13.80;99.90
3275;DHT22;1649;53.672;10.064;2023-08-30T00:24:26;13.80;99.90
3275;DHT22;1649;53.672;10.064;2023-08-30T00:26:51;13.70;99.90
3275;DHT22;1649;53.672;10.064;2023-08-30T00:29:17;13.80;99.90
3275;DHT22;1649;53.672;10.064;2023-08-30T00:31:42;13.80;99.90
3275;DHT22;1649;53.672;10.064;2023-08-30T00:34:07;13.80;99.90
3275;DHT22;1649;53.672;10.064;2023-08-30T00:36:33;13.70;99.90
3275;DHT22;1649;53.672;10.064;2023-08-30T00:38:58;13.60;99.90
3275;DHT22;1649;53.672;10.064;2023-08-30T00:41:24;13.60;99.90
3275;DHT22;1649;53.672;10.064;2023-08-30T00:43:49;13.70;99.90
3275;DHT22;1649;53.672;10.064;2023-08-30T00:46:15;13.70;99.90
3275;DHT22;1649;53.672;10.064;2023-08-30T00:48:41;13.60;99.90
3275;DHT22;1649;53.672;10.064;2023-08-30T00:51:07;13.60;99.90
3275;DHT22;1649;53.672;10.064;2023-08-30T00:53:32;13.60;99.90
3275;DHT22;1649;53.672;10.064;2023-08-30T00:55:58;13.60;99.90
3275;DHT22;1649;53.672;10.064;2023-08-30T00:58:24;13.50;99.90
3275;DHT22;1649;53.672;10.064;2023-08-30T01:00:52;13.50;99.90
3275;DHT22;1649;53.672;10.064;2023-08-30T01:03:18;13.50;99.90
3275;DHT22;1649;53.672;10.064;2023-08-30T01:05:44;13.50;99.90
3275;DHT22;1649;53.672;10.064;2023-08-30T01:08:09;13.50;99.90
3275;DHT22;1649;53.672;10.064;2023-08-30T01:13:39;13.40;99.90
3275;DHT22;1649;53.672;10.064;2023-08-30T01:16:05;13.40;99.90
3275;DHT22;1649;53.672;10.064;2023-08-30T01:18:34;13.40;99.90
3275;DHT22;1649;53.672;10.064;2023-08-30T01:21:02;13.30;99.90
3275;DHT22;1649;53.672;10.064;2023-08-30T01:23:47;13.30;99.90
3275;DHT22;1649;53.672;10.064;2023-08-30T01:26:48;13.30;99.90
3275;DHT22;1649;53.672;10.064;2023-08-30T01:29:17;13.20;99.90
3275;DHT22;1649;53.672;10.064;2023-08-30T01:31:45;13.20;99.90
3275;DHT22;1649;53.672;10.064;2023-08-30T01:34:12;13.20;99.90
3275;DHT22;1649;53.672;10.064;2023-08-30T01:36:39;13.20;99.90
3275;DHT22;1649;53.672;10.064;2023-08-30T01:39:08;13.10;99.90
3275;DHT22;1649;53.672;10.064;2023-08-30T01:41:35;13.10;99.90
3275;DHT22;1649;53.672;10.064;2023-08-30T01:44:01;13.20;99.90
3275;DHT22;1649;53.672;10.064;2023-08-30T01:46:29;13.20;99.90
3275;DHT22;1649;53.672;10.064;2023-08-30T01:48:55;13.20;99.90
3275;DHT22;1649;53.672;10.064;2023-08-30T01:51:21;13.10;99.90
3275;DHT22;1649;53.672;10.064;2023-08-30T01:53:48;13.10;99.90
3275;DHT22;1649;53.672;10.064;2023-08-30T01:56:14;13.10;99.90
3275;DHT22;1649;53.672;10.064;2023-08-30T01:58:40;13.10;99.90
3275;DHT22;1649;53.672;10.064;2023-08-30T02:01:05;13.10;99.90
3275;DHT22;1649;53.672;10.064;2023-08-30T02:03:31;13.00;99.90
3275;DHT22;1649;53.672;10.064;2023-08-30T02:06:07;13.00;99.90
3275;DHT22;1649;53.672;10.064;2023-08-30T02:08:52;13.00;99.90
3275;DHT22;1649;53.672;10.064;2023-08-30T02:11:23;13.00;99.90
3275;DHT22;1649;53.672;10.064;2023-08-30T02:13:53;13.00;99.90
3275;DHT22;1649;53.672;10.064;2023-08-30T02:16:20;13.00;99.90
3275;DHT22;1649;53.672;10.064;2023-08-30T02:18:46;12.90;99.90
3275;DHT22;1649;53.672;10.064;2023-08-30T02:21:12;12.90;99.90
3275;DHT22;1649;53.672;10.064;2023-08-30T02:23:38;12.90;99.90
3275;DHT22;1649;53.672;10.064;2023-08-30T02:26:03;12.90;99.90
3275;DHT22;1649;53.672;10.064;2023-08-30T02:28:29;12.90;99.90
3275;DHT22;1649;53.672;10.064;2023-08-30T02:30:54;12.90;99.90
3275;DHT22;1649;53.672;10.064;2023-08-30T02:33:20;12.90;99.90
3275;DHT22;1649;53.672;10.064;2023-08-30T02:35:46;12.90;99.90
3275;DHT22;1649;53.672;10.064;2023-08-30T02:38:12;12.90;99.90
3275;DHT22;1649;53.672;10.064;2023-08-30T02:40:37;12.90;99.90
3275;DHT22;1649;53.672;10.064;2023-08-30T02:43:03;13.00;99.90
3275;DHT22;1649;53.672;10.064;2023-08-30T02:45:28;13.10;99.90
3275;DHT22;1649;53.672;10.064;2023-08-30T02:47:57;13.10;99.90
3275;DHT22;1649;53.672;10.064;2023-08-30T02:50:23;13.10;99.90
3275;DHT22;1649;53.672;10.064;2023-08-30T02:52:49;13.00;99.90
3275;DHT22;1649;53.672;10.064;2023-08-30T02:55:14;13.00;99.90
3275;DHT22;1649;53.672;10.064;2023-08-30T02:57:40;13.10;99.90
3275;DHT22;1649;53.672;10.064;2023-08-30T03:00:06;13.10;99.90
3275;DHT22;1649;53.672;10.064;2023-08-30T03:02:32;13.10;99.90
3275;DHT22;1649;53.672;10.064;2023-08-30T03:04:59;13.10;99.90
3275;DHT22;1649;53.672;10.064;2023-08-30T03:07:24;13.10;99.90
3275;DHT22;1649;53.672;10.064;2023-08-30T03:09:53;13.10;99.90
3275;DHT22;1649;53.672;10.064;2023-08-30T03:12:19;13.10;99.90
3275;DHT22;1649;53.672;10.064;2023-08-30T03:14:45;13.10;99.90
3275;DHT22;1649;53.672;10.064;2023-08-30T03:17:10;13.20;99.90
3275;DHT22;1649;53.672;10.064;2023-08-30T03:19:36;13.20;99.90
3275;DHT22;1649;53.672;10.064;2023-08-30T03:22:01;13.20;99.90
3275;DHT22;1649;53.672;10.064;2023-08-30T03:24:26;13.20;99.90
3275;DHT22;1649;53.672;10.064;2023-08-30T03:26:52;13.20;99.90
3275;DHT22;1649;53.672;10.064;2023-08-30T03:29:17;13.20;99.90
3275;DHT22;1649;53.672;10.064;2023-08-30T03:31:43;13.20;99.90
3275;DHT22;1649;53.672;10.064;2023-08-30T03:34:09;13.20;99.90
3275;DHT22;1649;53.672;10.064;2023-08-30T03:36:34;13.20;99.90
3275;DHT22;1649;53.672;10.064;2023-08-30T03:39:00;13.20;99.90
3275;DHT22;1649;53.672;10.064;2023-08-30T03:41:26;13.20;99.90
3275;DHT22;1649;53.672;10.064;2023-08-30T03:43:51;13.20;99.90
3275;DHT22;1649;53.672;10.064;2023-08-30T03:46:17;13.20;99.90
3275;DHT22;1649;53.672;10.064;2023-08-30T03:48:42;13.20;99.90
3275;DHT22;1649;53.672;10.064;2023-08-30T03:51:08;13.20;99.90
3275;DHT22;1649;53.672;10.064;2023-08-30T03:53:33;13.20;99.90
3275;DHT22;1649;53.672;10.064;2023-08-30T03:55:59;13.20;99.90
3275;DHT22;1649;53.672;10.064;2023-08-30T03:58:25;13.20;99.90
3275;DHT22;1649;53.672;10.064;2023-08-30T04:00:50;13.20;99.90
3275;DHT22;1649;53.672;10.064;2023-08-30T04:03:16;13.20;99.90
3275;DHT22;1649;53.672;10.064;2023-08-30T04:05:42;13.20;99.90
3275;DHT22;1649;53.672;10.064;2023-08-30T04:08:08;13.20;99.90
3275;DHT22;1649;53.672;10.064;2023-08-30T04:10:38;13.30;99.90
3275;DHT22;1649;53.672;10.064;2023-08-30T04:13:04;13.30;99.90
3275;DHT22;1649;53.672;10.064;2023-08-30T04:15:34;13.30;99.90
3275;DHT22;1649;53.672;10.064;2023-08-30T04:18:00;13.20;99.90
3275;DHT22;1649;53.672;10.064;2023-08-30T04:20:26;13.20;99.90
3275;DHT22;1649;53.672;10.064;2023-08-30T04:22:52;13.10;99.90
3275;DHT22;1649;53.672;10.064;2023-08-30T04:25:18;13.10;99.90
3275;DHT22;1649;53.672;10.064;2023-08-30T04:27:44;13.20;99.90
3275;DHT22;1649;53.672;10.064;2023-08-30T04:30:10;13.20;99.90
3275;DHT22;1649;53.672;10.064;2023-08-30T04:32:36;13.20;99.90
3275;DHT22;1649;53.672;10.064;2023-08-30T04:35:01;13.30;99.90
3275;DHT22;1649;53.672;10.064;2023-08-30T04:37:30;13.30;99.90
3275;DHT22;1649;53.672;10.064;2023-08-30T04:39:57;13.40;99.90
3275;DHT22;1649;53.672;10.064;2023-08-30T04:42:22;13.30;99.90
3275;DHT22;1649;53.672;10.064;2023-08-30T04:44:48;13.40;99.90
3275;DHT22;1649;53.672;10.064;2023-08-30T04:47:13;13.30;99.90
3275;DHT22;1649;53.672;10.064;2023-08-30T04:49:39;13.30;99.90
3275;DHT22;1649;53.672;10.064;2023-08-30T04:52:04;13.30;99.90
3275;DHT22;1649;53.672;10.064;2023-08-30T04:54:30;13.30;99.90
3275;DHT22;1649;53.672;10.064;2023-08-30T04:56:56;13.30;99.90
3275;DHT22;1649;53.672;10.064;2023-08-30T04:59:21;13.40;99.90
3275;DHT22;1649;53.672;10.064;2023-08-30T05:01:47;13.30;99.90
3275;DHT22;1649;53.672;10.064;2023-08-30T05:04:12;13.30;99.90
3275;DHT22;1649;53.672;10.064;2023-08-30T05:06:38;13.50;99.90
3275;DHT22;1649;53.672;10.064;2023-08-30T05:09:03;13.60;99.90
3275;DHT22;1649;53.672;10.064;2023-08-30T05:11:29;13.70;99.90
3275;DHT22;1649;53.672;10.064;2023-08-30T05:13:55;13.60;99.90
3275;DHT22;1649;53.672;10.064;2023-08-30T05:16:20;13.60;99.90
3275;DHT22;1649;53.672;10.064;2023-08-30T05:18:46;13.60;99.90
3275;DHT22;1649;53.672;10.064;2023-08-30T05:21:13;13.70;99.90
3275;DHT22;1649;53.672;10.064;2023-08-30T05:23:39;13.70;99.90
3275;DHT22;1649;53.672;10.064;2023-08-30T05:26:09;13.60;99.90
3275;DHT22;1649;53.672;10.064;2023-08-30T05:28:35;13.70;99.90
3275;DHT22;1649;53.672;10.064;2023-08-30T05:31:00;13.80;99.90
3275;DHT22;1649;53.672;10.064;2023-08-30T05:33:26;13.80;99.90
3275;DHT22;1649;53.672;10.064;2023-08-30T05:35:51;13.90;99.90
3275;DHT22;1649;53.672;10.064;2023-08-30T05:38:17;13.90;99.90
3275;DHT22;1649;53.672;10.064;2023-08-30T05:40:42;14.00;99.90
3275;DHT22;1649;53.672;10.064;2023-08-30T05:43:10;14.00;99.90
3275;DHT22;1649;53.672;10.064;2023-08-30T05:45:36;14.00;99.90
3275;DHT22;1649;53.672;10.064;2023-08-30T05:48:02;14.10;99.90
3275;DHT22;1649;53.672;10.064;2023-08-30T05:50:28;14.20;99.90
3275;DHT22;1649;53.672;10.064;2023-08-30T05:52:54;14.20;99.90
3275;DHT22;1649;53.672;10.064;2023-08-30T05:55:19;14.30;99.90
3275;DHT22;1649;53.672;10.064;2023-08-30T05:57:45;14.40;99.90
3275;DHT22;1649;53.672;10.064;2023-08-30T06:00:11;14.40;99.90
3275;DHT22;1649;53.672;10.064;2023-08-30T06:02:38;14.50;99.90
3275;DHT22;1649;53.672;10.064;2023-08-30T06:05:04;14.50;99.90
3275;DHT22;1649;53.672;10.064;2023-08-30T06:07:30;14.60;99.90
3275;DHT22;1649;53.672;10.064;2023-08-30T06:09:55;14.50;99.90
3275;DHT22;1649;53.672;10.064;2023-08-30T06:12:20;14.60;99.90
3275;DHT22;1649;53.672;10.064;2023-08-30T06:14:46;14.60;99.90
3275;DHT22;1649;53.672;10.064;2023-08-30T06:17:17;14.70;99.90
3275;DHT22;1649;53.672;10.064;2023-08-30T06:19:43;14.80;99.90
3275;DHT22;1649;53.672;10.064;2023-08-30T06:22:08;14.90;99.90
3275;DHT22;1649;53.672;10.064;2023-08-30T06:24:34;15.00;99.90
3275;DHT22;1649;53.672;10.064;2023-08-30T06:26:59;15.10;99.90
3275;DHT22;1649;53.672;10.064;2023-08-30T06:29:25;15.30;99.90
3275;DHT22;1649;53.672;10.064;2023-08-30T06:31:50;15.50;99.90
3275;DHT22;1649;53.672;10.064;2023-08-30T06:34:16;15.80;99.90
3275;DHT22;1649;53.672;10.064;2023-08-30T06:36:42;16.20;99.90
3275;DHT22;1649;53.672;10.064;2023-08-30T06:39:07;16.60;99.90
3275;DHT22;1649;53.672;10.064;2023-08-30T06:41:33;16.90;99.90
3275;DHT22;1649;53.672;10.064;2023-08-30T06:43:58;17.10;99.90
3275;DHT22;1649;53.672;10.064;2023-08-30T06:46:24;17.30;99.90
3275;DHT22;1649;53.672;10.064;2023-08-30T06:48:49;17.40;99.90
3275;DHT22;1649;53.672;10.064;2023-08-30T06:51:15;17.50;99.90
3275;DHT22;1649;53.672;10.064;2023-08-30T06:53:40;17.80;99.90
3275;DHT22;1649;53.672;10.064;2023-08-30T06:56:06;17.90;99.90
3275;DHT22;1649;53.672;10.064;2023-08-30T06:58:31;17.90;99.90
3275;DHT22;1649;53.672;10.064;2023-08-30T07:00:57;17.90;99.90
3275;DHT22;1649;53.672;10.064;2023-08-30T07:03:23;17.80;99.90
3275;DHT22;1649;53.672;10.064;2023-08-30T07:05:51;17.60;99.90
3275;DHT22;1649;53.672;10.064;2023-08-30T07:08:16;17.50;99.90
3275;DHT22;1649;53.672;10.064;2023-08-30T07:10:42;17.50;99.90
3275;DHT22;1649;53.672;10.064;2023-08-30T07:13:08;17.70;99.90
3275;DHT22;1649;53.672;10.064;2023-08-30T07:15:38;17.80;99.90
3275;DHT22;1649;53.672;10.064;2023-08-30T07:18:05;17.90;99.90
3275;DHT22;1649;53.672;10.064;2023-08-30T07:20:31;17.90;99.90
3275;DHT22;1649;53.672;10.064;2023-08-30T07:22:56;17.90;99.90
3275;DHT22;1649;53.672;10.064;2023-08-30T07:25:22;18.10;99.90
3275;DHT22;1649;53.672;10.064;2023-08-30T07:27:48;18.30;99.90
3275;DHT22;1649;53.672;10.064;2023-08-30T07:30:13;18.40;99.90
3275;DHT22;1649;53.672;10.064;2023-08-30T07:32:40;18.50;99.90
3275;DHT22;1649;53.672;10.064;2023-08-30T07:35:06;18.50;99.90
3275;DHT22;1649;53.672;10.064;2023-08-30T07:37:32;18.50;99.90
3275;DHT22;1649;53.672;10.064;2023-08-30T07:39:57;18.40;99.90
3275;DHT22;1649;53.672;10.064;2023-08-30T07:42:23;18.50;99.90
3275;DHT22;1649;53.672;10.064;2023-08-30T07:44:48;18.70;99.90
3275;DHT22;1649;53.672;10.064;2023-08-30T07:47:14;19.00;99.90
3275;DHT22;1649;53.672;10.064;2023-08-30T07:49:40;19.30;99.90
3275;DHT22;1649;53.672;10.064;2023-08-30T07:52:06;19.50;99.90
3275;DHT22;1649;53.672;10.064;2023-08-30T07:54:33;19.60;99.90
3275;DHT22;1649;53.672;10.064;2023-08-30T07:56:59;19.80;99.90
3275;DHT22;1649;53.672;10.064;2023-08-30T07:59:24;19.80;99.90
3275;DHT22;1649;53.672;10.064;2023-08-30T08:01:50;19.80;99.90
3275;DHT22;1649;53.672;10.064;2023-08-30T08:04:16;19.90;99.90
3275;DHT22;1649;53.672;10.064;2023-08-30T08:06:42;20.40;99.90
3275;DHT22;1649;53.672;10.064;2023-08-30T08:09:07;20.60;99.90
3275;DHT22;1649;53.672;10.064;2023-08-30T08:11:33;20.80;99.90
3275;DHT22;1649;53.672;10.064;2023-08-30T08:13:59;21.00;99.90
3275;DHT22;1649;53.672;10.064;2023-08-30T08:16:24;21.10;99.90
3275;DHT22;1649;53.672;10.064;2023-08-30T08:18:50;21.10;99.90
3275;DHT22;1649;53.672;10.064;2023-08-30T08:21:17;21.10;99.90
3275;DHT22;1649;53.672;10.064;2023-08-30T08:23:43;20.90;99.90
3275;DHT22;1649;53.672;10.064;2023-08-30T08:26:08;20.70;99.90
3275;DHT22;1649;53.672;10.064;2023-08-30T08:28:34;20.50;99.90
3275;DHT22;1649;53.672;10.064;2023-08-30T08:31:00;20.40;99.90
3275;DHT22;1649;53.672;10.064;2023-08-30T08:33:25;20.40;99.90
3275;DHT22;1649;53.672;10.064;2023-08-30T08:35:51;20.70;99.90
3275;DHT22;1649;53.672;10.064;2023-08-30T08:38:16;20.80;99.90
3275;DHT22;1649;53.672;10.064;2023-08-30T08:40:42;20.70;99.90
3275;DHT22;1649;53.672;10.064;2023-08-30T08:43:10;20.80;99.90
3275;DHT22;1649;53.672;10.064;2023-08-30T08:45:36;21.10;99.90
3275;DHT22;1649;53.672;10.064;2023-08-30T08:48:04;21.30;99.90
3275;DHT22;1649;53.672;10.064;2023-08-30T08:50:30;21.80;99.90
3275;DHT22;1649;53.672;10.064;2023-08-30T08:52:56;22.20;99.90
3275;DHT22;1649;53.672;10.064;2023-08-30T08:55:22;22.50;99.90
3275;DHT22;1649;53.672;10.064;2023-08-30T08:57:48;22.90;99.90
3275;DHT22;1649;53.672;10.064;2023-08-30T09:00:14;23.20;99.90
3275;DHT22;1649;53.672;10.064;2023-08-30T09:02:42;23.30;99.90
3275;DHT22;1649;53.672;10.064;2023-08-30T09:05:09;23.00;99.90
3275;DHT22;1649;53.672;10.064;2023-08-30T09:07:35;22.90;99.90
3275;DHT22;1649;53.672;10.064;2023-08-30T09:10:01;22.80;99.90
3275;DHT22;1649;53.672;10.064;2023-08-30T09:12:27;22.60;99.90
3275;DHT22;1649;53.672;10.064;2023-08-30T09:14:54;22.60;99.90
3275;DHT22;1649;53.672;10.064;2023-08-30T09:17:20;22.30;99.90
3275;DHT22;1649;53.672;10.064;2023-08-30T09:19:46;22.10;99.90
3275;DHT22;1649;53.672;10.064;2023-08-30T09:22:11;22.00;99.90
3275;DHT22;1649;53.672;10.064;2023-08-30T09:24:40;21.90;99.90
3275;DHT22;1649;53.672;10.064;2023-08-30T09:27:06;21.80;99.90
3275;DHT22;1649;53.672;10.064;2023-08-30T09:29:32;21.70;99.90
3275;DHT22;1649;53.672;10.064;2023-08-30T09:31:58;21.60;99.90
3275;DHT22;1649;53.672;10.064;2023-08-30T09:34:24;21.50;99.90
3275;DHT22;1649;53.672;10.064;2023-08-30T09:36:50;21.50;99.90
3275;DHT22;1649;53.672;10.064;2023-08-30T09:39:16;21.60;99.90
3275;DHT22;1649;53.672;10.064;2023-08-30T09:41:45;21.70;99.90
3275;DHT22;1649;53.672;10.064;2023-08-30T09:46:53;21.60;99.90
3275;DHT22;1649;53.672;10.064;2023-08-30T09:49:26;21.60;99.90
3275;DHT22;1649;53.672;10.064;2023-08-30T09:51:52;21.70;99.90
3275;DHT22;1649;53.672;10.064;2023-08-30T09:54:22;21.70;99.90
3275;DHT22;1649;53.672;10.064;2023-08-30T09:56:48;22.00;99.90
3275;DHT22;1649;53.672;10.064;2023-08-30T09:59:17;22.00;99.90
3275;DHT22;1649;53.672;10.064;2023-08-30T10:01:44;21.90;99.90
3275;DHT22;1649;53.672;10.064;2023-08-30T10:04:11;21.70;99.10
3275;DHT22;1649;53.672;10.064;2023-08-30T10:06:37;21.70;99.90
3275;DHT22;1649;53.672;10.064;2023-08-30T10:09:04;21.60;97.30
3275;DHT22;1649;53.672;10.064;2023-08-30T10:11:33;21.60;99.00
3275;DHT22;1649;53.672;10.064;2023-08-30T10:14:00;21.60;98.40
3275;DHT22;1649;53.672;10.064;2023-08-30T10:16:26;21.50;99.90
3275;DHT22;1649;53.672;10.064;2023-08-30T10:18:55;21.40;97.70
3275;DHT22;1649;53.672;10.064;2023-08-30T10:21:23;21.30;96.10
3275;DHT22;1649;53.672;10.064;2023-08-30T10:23:50;21.30;96.90
3275;DHT22;1649;53.672;10.064;2023-08-30T10:26:17;21.20;96.90
3275;DHT22;1649;53.672;10.064;2023-08-30T10:28:44;21.00;96.20
3275;DHT22;1649;53.672;10.064;2023-08-30T10:31:10;21.00;97.90
3275;DHT22;1649;53.672;10.064;2023-08-30T10:33:54;20.80;98.90
3275;DHT22;1649;53.672;10.064;2023-08-30T10:36:22;21.00;99.80
3275;DHT22;1649;53.672;10.064;2023-08-30T10:38:50;21.20;98.80
3275;DHT22;1649;53.672;10.064;2023-08-30T10:41:20;21.30;99.90
3275;DHT22;1649;53.672;10.064;2023-08-30T10:43:50;21.30;98.80
3275;DHT22;1649;53.672;10.064;2023-08-30T10:46:16;21.20;99.70
3275;DHT22;1649;53.672;10.064;2023-08-30T10:48:42;21.20;99.90
3275;DHT22;1649;53.672;10.064;2023-08-30T10:51:21;21.20;97.20
3275;DHT22;1649;53.672;10.064;2023-08-30T10:54:11;21.20;98.00
3275;DHT22;1649;53.672;10.064;2023-08-30T10:56:53;21.30;97.40
3275;DHT22;1649;53.672;10.064;2023-08-30T10:59:20;21.40;96.80
3275;DHT22;1649;53.672;10.064;2023-08-30T11:01:47;21.40;97.40
3275;DHT22;1649;53.672;10.064;2023-08-30T11:04:15;21.30;98.60
3275;DHT22;1649;53.672;10.064;2023-08-30T11:06:43;21.60;97.30
3275;DHT22;1649;53.672;10.064;2023-08-30T11:09:10;22.00;98.70
3275;DHT22;1649;53.672;10.064;2023-08-30T11:11:37;22.40;95.00
3275;DHT22;1649;53.672;10.064;2023-08-30T11:14:09;22.10;93.40
3275;DHT22;1649;53.672;10.064;2023-08-30T11:16:35;21.70;95.00
3275;DHT22;1649;53.672;10.064;2023-08-30T11:19:02;21.50;96.60
3275;DHT22;1649;53.672;10.064;2023-08-30T11:21:35;21.50;95.00
3275;DHT22;1649;53.672;10.064;2023-08-30T11:24:01;21.40;95.50
3275;DHT22;1649;53.672;10.064;2023-08-30T11:26:28;21.50;96.90
3275;DHT22;1649;53.672;10.064;2023-08-30T11:28:54;21.50;95.40
3275;DHT22;1649;53.672;10.064;2023-08-30T11:31:23;21.40;96.20
3275;DHT22;1649;53.672;10.064;2023-08-30T11:33:53;21.50;96.70
3275;DHT22;1649;53.672;10.064;2023-08-30T11:36:21;21.50;97.50
3275;DHT22;1649;53.672;10.064;2023-08-30T11:38:49;21.60;96.40
3275;DHT22;1649;53.672;10.064;2023-08-30T11:41:14;21.90;97.00
3275;DHT22;1649;53.672;10.064;2023-08-30T11:43:40;22.10;96.40
3275;DHT22;1649;53.672;10.064;2023-08-30T11:46:06;22.10;96.30
3275;DHT22;1649;53.672;10.064;2023-08-30T11:48:31;22.10;96.00
3275;DHT22;1649;53.672;10.064;2023-08-30T11:50:58;22.00;95.90
3275;DHT22;1649;53.672;10.064;2023-08-30T11:53:24;22.00;95.80
3275;DHT22;1649;53.672;10.064;2023-08-30T11:55:51;21.90;96.30
3275;DHT22;1649;53.672;10.064;2023-08-30T11:58:18;21.70;94.90
3275;DHT22;1649;53.672;10.064;2023-08-30T12:00:44;21.50;96.80
3275;DHT22;1649;53.672;10.064;2023-08-30T12:03:13;21.60;96.20
3275;DHT22;1649;53.672;10.064;2023-08-30T12:05:46;21.70;95.10
3275;DHT22;1649;53.672;10.064;2023-08-30T12:08:20;21.70;96.80
3275;DHT22;1649;53.672;10.064;2023-08-30T12:10:46;21.80;98.00
3275;DHT22;1649;53.672;10.064;2023-08-30T12:13:25;22.20;98.00
3275;DHT22;1649;53.672;10.064;2023-08-30T12:15:51;22.30;94.60
3275;DHT22;1649;53.672;10.064;2023-08-30T12:18:17;22.00;94.20
3275;DHT22;1649;53.672;10.064;2023-08-30T12:20:52;21.70;93.80
3275;DHT22;1649;53.672;10.064;2023-08-30T12:23:26;21.70;95.90
3275;DHT22;1649;53.672;10.064;2023-08-30T12:26:07;21.70;95.00
3275;DHT22;1649;53.672;10.064;2023-08-30T12:28:40;21.70;94.30
3275;DHT22;1649;53.672;10.064;2023-08-30T12:31:07;21.60;95.00
3275;DHT22;1649;53.672;10.064;2023-08-30T12:33:33;21.70;97.40
3275;DHT22;1649;53.672;10.064;2023-08-30T12:35:59;21.60;95.10
3275;DHT22;1649;53.672;10.064;2023-08-30T12:38:25;21.70;95.10
3275;DHT22;1649;53.672;10.064;2023-08-30T12:40:52;21.70;95.60
3275;DHT22;1649;53.672;10.064;2023-08-30T12:43:19;21.70;94.60
3275;DHT22;1649;53.672;10.064;2023-08-30T12:45:48;21.70;94.00
3275;DHT22;1649;53.672;10.064;2023-08-30T12:48:15;21.70;94.10
3275;DHT22;1649;53.672;10.064;2023-08-30T12:50:46;21.70;95.30
3275;DHT22;1649;53.672;10.064;2023-08-30T12:53:12;22.00;94.20
3275;DHT22;1649;53.672;10.064;2023-08-30T12:55:37;22.00;95.00
3275;DHT22;1649;53.672;10.064;2023-08-30T12:58:06;21.90;93.80
3275;DHT22;1649;53.672;10.064;2023-08-30T13:00:31;21.80;94.90
3275;DHT22;1649;53.672;10.064;2023-08-30T13:02:57;21.80;94.20
3275;DHT22;1649;53.672;10.064;2023-08-30T13:05:22;21.80;94.10
3275;DHT22;1649;53.672;10.064;2023-08-30T13:07:48;21.80;94.20
3275;DHT22;1649;53.672;10.064;2023-08-30T13:10:13;21.70;94.20
3275;DHT22;1649;53.672;10.064;2023-08-30T13:12:40;21.40;93.30
3275;DHT22;1649;53.672;10.064;2023-08-30T13:15:06;21.40;95.50
3275;DHT22;1649;53.672;10.064;2023-08-30T13:17:33;21.60;95.20
3275;DHT22;1649;53.672;10.064;2023-08-30T13:19:58;21.70;93.20
3275;DHT22;1649;53.672;10.064;2023-08-30T13:22:27;21.60;94.30
3275;DHT22;1649;53.672;10.064;2023-08-30T13:24:53;21.90;94.50
3275;DHT22;1649;53.672;10.064;2023-08-30T13:27:19;22.00;93.60
3275;DHT22;1649;53.672;10.064;2023-08-30T13:29:44;21.90;93.80
3275;DHT22;1649;53.672;10.064;2023-08-30T13:32:10;21.90;94.30
3275;DHT22;1649;53.672;10.064;2023-08-30T13:34:36;21.90;94.70
3275;DHT22;1649;53.672;10.064;2023-08-30T13:37:02;22.10;94.50
3275;DHT22;1649;53.672;10.064;2023-08-30T13:39:28;22.40;93.10
3275;DHT22;1649;53.672;10.064;2023-08-30T13:41:54;22.40;93.20
3275;DHT22;1649;53.672;10.064;2023-08-30T13:44:19;22.50;94.00
3275;DHT22;1649;53.672;10.064;2023-08-30T13:46:45;22.60;94.00
3275;DHT22;1649;53.672;10.064;2023-08-30T13:49:13;22.70;92.70
3275;DHT22;1649;53.672;10.064;2023-08-30T13:51:38;22.70;92.20
3275;DHT22;1649;53.672;10.064;2023-08-30T13:54:04;22.30;92.70
3275;DHT22;1649;53.672;10.064;2023-08-30T13:56:30;22.00;93.90
3275;DHT22;1649;53.672;10.064;2023-08-30T13:58:57;21.90;94.50
3275;DHT22;1649;53.672;10.064;2023-08-30T14:01:23;21.90;93.80
3275;DHT22;1649;53.672;10.064;2023-08-30T14:03:48;21.30;92.50
3275;DHT22;1649;53.672;10.064;2023-08-30T14:06:14;21.20;93.60
3275;DHT22;1649;53.672;10.064;2023-08-30T14:08:39;21.30;93.60
3275;DHT22;1649;53.672;10.064;2023-08-30T14:11:05;21.50;93.80
3275;DHT22;1649;53.672;10.064;2023-08-30T14:13:30;21.80;95.30
3275;DHT22;1649;53.672;10.064;2023-08-30T14:16:00;22.00;93.00
3275;DHT22;1649;53.672;10.064;2023-08-30T14:18:26;22.10;92.50
3275;DHT22;1649;53.672;10.064;2023-08-30T14:20:59;21.90;92.60
3275;DHT22;1649;53.672;10.064;2023-08-30T14:23:28;21.80;93.30
3275;DHT22;1649;53.672;10.064;2023-08-30T14:26:00;21.80;93.30
3275;DHT22;1649;53.672;10.064;2023-08-30T14:28:27;21.70;93.10
3275;DHT22;1649;53.672;10.064;2023-08-30T14:30:53;21.70;93.70
3275;DHT22;1649;53.672;10.064;2023-08-30T14:33:18;21.60;94.00
3275;DHT22;1649;53.672;10.064;2023-08-30T14:35:44;21.30;93.60
3275;DHT22;1649;53.672;10.064;2023-08-30T14:38:09;21.10;93.50
3275;DHT22;1649;53.672;10.064;2023-08-30T14:40:35;21.10;94.40
3275;DHT22;1649;53.672;10.064;2023-08-30T14:43:02;21.00;95.20
3275;DHT22;1649;53.672;10.064;2023-08-30T14:45:28;21.00;94.80
3275;DHT22;1649;53.672;10.064;2023-08-30T14:47:54;21.00;98.50
3275;DHT22;1649;53.672;10.064;2023-08-30T14:50:20;20.90;95.10
3275;DHT22;1649;53.672;10.064;2023-08-30T14:52:45;20.80;93.90
3275;DHT22;1649;53.672;10.064;2023-08-30T14:55:11;20.90;94.60
3275;DHT22;1649;53.672;10.064;2023-08-30T14:57:36;20.80;95.50
3275;DHT22;1649;53.672;10.064;2023-08-30T15:00:02;20.80;94.80
3275;DHT22;1649;53.672;10.064;2023-08-30T15:02:27;20.70;94.50
3275;DHT22;1649;53.672;10.064;2023-08-30T15:04:53;20.60;94.40
3275;DHT22;1649;53.672;10.064;2023-08-30T15:07:18;20.50;95.10
3275;DHT22;1649;53.672;10.064;2023-08-30T15:09:45;20.50;97.70
3275;DHT22;1649;53.672;10.064;2023-08-30T15:12:10;20.60;99.70
3275;DHT22;1649;53.672;10.064;2023-08-30T15:14:36;20.60;99.90
3275;DHT22;1649;53.672;10.064;2023-08-30T15:17:02;20.60;99.90
3275;DHT22;1649;53.672;10.064;2023-08-30T15:19:27;20.60;99.90
3275;DHT22;1649;53.672;10.064;2023-08-30T15:21:53;20.40;99.90
3275;DHT22;1649;53.672;10.064;2023-08-30T15:24:18;20.40;97.40
3275;DHT22;1649;53.672;10.064;2023-08-30T15:26:44;20.40;98.50
3275;DHT22;1649;53.672;10.064;2023-08-30T15:29:10;20.50;98.20
3275;DHT22;1649;53.672;10.064;2023-08-30T15:31:35;20.60;99.70
3275;DHT22;1649;53.672;10.064;2023-08-30T15:34:01;20.50;99.90
3275;DHT22;1649;53.672;10.064;2023-08-30T15:36:26;20.60;99.90
3275;DHT22;1649;53.672;10.064;2023-08-30T15:38:51;20.70;99.90
3275;DHT22;1649;53.672;10.064;2023-08-30T15:41:17;20.70;99.90
3275;DHT22;1649;53.672;10.064;2023-08-30T15:43:42;20.70;99.90
3275;DHT22;1649;53.672;10.064;2023-08-30T15:46:09;20.70;99.90